Terminal Aerodrome Forecast
Issued by NWS Jackson, MS

Home | Current Version | Previous Version | Text Only | Print | Product List | Glossary On
Versions: 1 2 3 4 5 6 7 8 9 10 11 12 13 14 15
000
FTUS44 KJAN 301733
TAFJAN
TAF
KJAN 301733Z 3018/0118 17008KT P6SM -RA VCTS FEW040CB SCT080 BKN100
     FM302200 25010KT P6SM VCSH BKN060
     FM010200 21004KT P6SM FEW250
     FM011500 23006KT P6SM BKN250=

USA.gov is the U.S. government's official web portal to all federal, state and local government web resources and services.